Colony Town, Mississippi
Current Conditions -  °F | °C
As of 12:53 AM on Thursday 23 Oct 2014 (Local Time) from KGWO Reporting Station
Clear Clear  
Wind Chill: 45°   Ceiling: Unl
Heat Index: 45°   Visibility: 10mi
Dew Point: 42°   Wind: 0mph
Humidity: 90%   Direction: NA
Pressure: 30.15"   Gusts: NA
Location:  33.4064°N, 90.3812°W
Report Text: KGWO 230553Z AUTO 00000KT 10SM CLR 07/06 A3015 RMK AO2 SLP211 T00720056 10128 20067 402220067 58002 TSNO
Loading
Personal Weather Stations






























Interactive Weather Map
Tropical Storm Tracking
New forecast layout! Learn more

10-Day Weather Forecast

Advertisements
Track Severe Weather on mobile